sensor_id;sensor_type;location;lat;lon;timestamp;P1;durP1;ratioP1;P2;durP2;ratioP2
55114;SDS011;41010;53.252;5.786;2023-03-01T00:00:19;20.10;;;11.60;;
55114;SDS011;41010;53.252;5.786;2023-03-01T00:02:48;23.80;;;10.98;;
55114;SDS011;41010;53.252;5.786;2023-03-01T00:05:15;15.98;;;10.18;;
55114;SDS011;41010;53.252;5.786;2023-03-01T00:07:42;19.98;;;11.10;;
55114;SDS011;41010;53.252;5.786;2023-03-01T00:10:10;18.77;;;10.73;;
55114;SDS011;41010;53.252;5.786;2023-03-01T00:12:38;20.17;;;11.95;;
55114;SDS011;41010;53.252;5.786;2023-03-01T00:15:05;17.40;;;10.30;;
55114;SDS011;41010;53.252;5.786;2023-03-01T00:17:33;21.13;;;11.70;;
55114;SDS011;41010;53.252;5.786;2023-03-01T00:20:01;20.23;;;10.18;;
55114;SDS011;41010;53.252;5.786;2023-03-01T00:22:32;24.83;;;10.75;;
55114;SDS011;41010;53.252;5.786;2023-03-01T00:24:59;17.77;;;9.63;;
55114;SDS011;41010;53.252;5.786;2023-03-01T00:27:26;15.95;;;9.50;;
55114;SDS011;41010;53.252;5.786;2023-03-01T00:29:54;22.05;;;11.27;;
55114;SDS011;41010;53.252;5.786;2023-03-01T00:32:21;21.73;;;10.70;;
55114;SDS011;41010;53.252;5.786;2023-03-01T00:34:48;25.50;;;11.95;;
55114;SDS011;41010;53.252;5.786;2023-03-01T00:37:21;40.53;;;16.60;;
55114;SDS011;41010;53.252;5.786;2023-03-01T00:39:48;40.72;;;17.65;;
55114;SDS011;41010;53.252;5.786;2023-03-01T00:42:16;36.08;;;16.65;;
55114;SDS011;41010;53.252;5.786;2023-03-01T00:44:43;31.92;;;14.35;;
55114;SDS011;41010;53.252;5.786;2023-03-01T00:47:10;22.75;;;11.55;;
55114;SDS011;41010;53.252;5.786;2023-03-01T00:49:39;26.10;;;10.52;;
55114;SDS011;41010;53.252;5.786;2023-03-01T00:52:06;16.75;;;9.00;;
55114;SDS011;41010;53.252;5.786;2023-03-01T00:54:34;21.95;;;10.52;;
55114;SDS011;41010;53.252;5.786;2023-03-01T00:57:02;17.75;;;10.15;;
55114;SDS011;41010;53.252;5.786;2023-03-01T00:59:29;17.60;;;9.68;;
55114;SDS011;41010;53.252;5.786;2023-03-01T01:01:56;17.52;;;9.45;;
55114;SDS011;41010;53.252;5.786;2023-03-01T01:04:24;20.67;;;9.75;;
55114;SDS011;41010;53.252;5.786;2023-03-01T01:06:51;13.57;;;8.57;;
55114;SDS011;41010;53.252;5.786;2023-03-01T01:09:18;15.10;;;8.80;;
55114;SDS011;41010;53.252;5.786;2023-03-01T01:11:48;16.15;;;8.85;;
55114;SDS011;41010;53.252;5.786;2023-03-01T01:14:15;15.18;;;8.80;;
55114;SDS011;41010;53.252;5.786;2023-03-01T01:16:43;17.83;;;9.60;;
55114;SDS011;41010;53.252;5.786;2023-03-01T01:19:10;16.05;;;8.98;;
55114;SDS011;41010;53.252;5.786;2023-03-01T01:21:38;13.27;;;8.30;;
55114;SDS011;41010;53.252;5.786;2023-03-01T01:24:08;18.38;;;9.02;;
55114;SDS011;41010;53.252;5.786;2023-03-01T01:26:35;17.20;;;9.80;;
55114;SDS011;41010;53.252;5.786;2023-03-01T01:29:06;16.38;;;9.60;;
55114;SDS011;41010;53.252;5.786;2023-03-01T01:31:34;27.88;;;11.32;;
55114;SDS011;41010;53.252;5.786;2023-03-01T01:34:02;20.05;;;10.40;;
55114;SDS011;41010;53.252;5.786;2023-03-01T01:36:30;20.83;;;11.35;;
55114;SDS011;41010;53.252;5.786;2023-03-01T01:38:57;22.17;;;10.85;;
55114;SDS011;41010;53.252;5.786;2023-03-01T01:41:25;20.85;;;10.48;;
55114;SDS011;41010;53.252;5.786;2023-03-01T01:46:36;38.80;;;11.05;;
55114;SDS011;41010;53.252;5.786;2023-03-01T01:49:05;23.58;;;10.60;;
55114;SDS011;41010;53.252;5.786;2023-03-01T01:51:35;33.65;;;12.80;;
55114;SDS011;41010;53.252;5.786;2023-03-01T01:54:05;143.80;;;15.88;;
55114;SDS011;41010;53.252;5.786;2023-03-01T01:56:34;74.53;;;14.43;;
55114;SDS011;41010;53.252;5.786;2023-03-01T01:59:03;44.78;;;14.25;;
55114;SDS011;41010;53.252;5.786;2023-03-01T02:01:31;38.35;;;14.77;;
55114;SDS011;41010;53.252;5.786;2023-03-01T02:03:59;95.38;;;15.40;;
55114;SDS011;41010;53.252;5.786;2023-03-01T02:06:27;186.95;;;16.83;;
55114;SDS011;41010;53.252;5.786;2023-03-01T02:08:56;375.05;;;17.70;;
55114;SDS011;41010;53.252;5.786;2023-03-01T02:11:24;306.00;;;17.80;;
55114;SDS011;41010;53.252;5.786;2023-03-01T02:13:52;222.73;;;14.95;;
55114;SDS011;41010;53.252;5.786;2023-03-01T02:16:20;79.45;;;12.95;;
55114;SDS011;41010;53.252;5.786;2023-03-01T02:18:47;105.15;;;12.40;;
55114;SDS011;41010;53.252;5.786;2023-03-01T02:21:20;158.65;;;9.75;;
55114;SDS011;41010;53.252;5.786;2023-03-01T02:23:52;156.05;;;8.32;;
55114;SDS011;41010;53.252;5.786;2023-03-01T02:26:23;212.50;;;8.23;;
55114;SDS011;41010;53.252;5.786;2023-03-01T02:28:55;211.45;;;8.05;;
55114;SDS011;41010;53.252;5.786;2023-03-01T02:31:23;148.00;;;7.85;;
55114;SDS011;41010;53.252;5.786;2023-03-01T02:34:09;214.32;;;9.07;;
55114;SDS011;41010;53.252;5.786;2023-03-01T02:36:38;234.98;;;10.07;;
55114;SDS011;41010;53.252;5.786;2023-03-01T02:39:07;273.45;;;11.60;;
55114;SDS011;41010;53.252;5.786;2023-03-01T02:41:39;349.77;;;11.57;;
55114;SDS011;41010;53.252;5.786;2023-03-01T02:44:09;424.45;;;11.75;;
55114;SDS011;41010;53.252;5.786;2023-03-01T02:46:41;254.48;;;11.32;;
55114;SDS011;41010;53.252;5.786;2023-03-01T02:49:19;433.77;;;14.75;;
55114;SDS011;41010;53.252;5.786;2023-03-01T02:51:48;478.88;;;13.52;;
55114;SDS011;41010;53.252;5.786;2023-03-01T02:54:21;374.23;;;12.57;;
55114;SDS011;41010;53.252;5.786;2023-03-01T02:56:49;253.55;;;10.65;;
55114;SDS011;41010;53.252;5.786;2023-03-01T02:59:19;404.35;;;10.85;;
55114;SDS011;41010;53.252;5.786;2023-03-01T03:01:47;288.27;;;10.32;;
55114;SDS011;41010;53.252;5.786;2023-03-01T03:04:15;267.75;;;10.07;;
55114;SDS011;41010;53.252;5.786;2023-03-01T03:06:43;317.52;;;9.02;;
55114;SDS011;41010;53.252;5.786;2023-03-01T03:09:10;343.65;;;10.50;;
55114;SDS011;41010;53.252;5.786;2023-03-01T03:11:38;268.77;;;8.85;;
55114;SDS011;41010;53.252;5.786;2023-03-01T03:14:06;315.00;;;8.43;;
55114;SDS011;41010;53.252;5.786;2023-03-01T03:16:40;289.33;;;8.65;;
55114;SDS011;41010;53.252;5.786;2023-03-01T03:19:08;256.48;;;8.50;;
55114;SDS011;41010;53.252;5.786;2023-03-01T03:21:35;284.40;;;7.82;;
55114;SDS011;41010;53.252;5.786;2023-03-01T03:24:03;137.20;;;6.68;;
55114;SDS011;41010;53.252;5.786;2023-03-01T03:26:31;132.93;;;8.73;;
55114;SDS011;41010;53.252;5.786;2023-03-01T03:28:58;116.63;;;6.38;;
55114;SDS011;41010;53.252;5.786;2023-03-01T03:31:26;189.98;;;10.00;;
55114;SDS011;41010;53.252;5.786;2023-03-01T03:33:54;296.38;;;10.00;;
55114;SDS011;41010;53.252;5.786;2023-03-01T03:36:24;298.88;;;9.85;;
55114;SDS011;41010;53.252;5.786;2023-03-01T03:38:51;313.38;;;12.45;;
55114;SDS011;41010;53.252;5.786;2023-03-01T03:41:19;276.73;;;11.77;;
55114;SDS011;41010;53.252;5.786;2023-03-01T03:43:46;190.23;;;11.68;;
55114;SDS011;41010;53.252;5.786;2023-03-01T03:46:14;388.17;;;12.35;;
55114;SDS011;41010;53.252;5.786;2023-03-01T03:48:43;420.67;;;11.40;;
55114;SDS011;41010;53.252;5.786;2023-03-01T03:51:12;403.02;;;9.50;;
55114;SDS011;41010;53.252;5.786;2023-03-01T03:53:40;381.25;;;11.77;;
55114;SDS011;41010;53.252;5.786;2023-03-01T03:56:07;196.40;;;7.85;;
55114;SDS011;41010;53.252;5.786;2023-03-01T03:58:35;292.83;;;7.70;;
55114;SDS011;41010;53.252;5.786;2023-03-01T04:01:02;242.95;;;10.45;;
55114;SDS011;41010;53.252;5.786;2023-03-01T04:03:30;229.75;;;9.10;;
55114;SDS011;41010;53.252;5.786;2023-03-01T04:05:58;291.92;;;9.43;;
55114;SDS011;41010;53.252;5.786;2023-03-01T04:08:28;382.70;;;10.90;;
55114;SDS011;41010;53.252;5.786;2023-03-01T04:10:59;324.08;;;9.90;;
55114;SDS011;41010;53.252;5.786;2023-03-01T04:13:47;224.13;;;8.13;;
55114;SDS011;41010;53.252;5.786;2023-03-01T04:16:14;105.65;;;8.10;;
55114;SDS011;41010;53.252;5.786;2023-03-01T04:18:41;56.90;;;7.93;;
55114;SDS011;41010;53.252;5.786;2023-03-01T04:21:09;112.45;;;8.30;;
55114;SDS011;41010;53.252;5.786;2023-03-01T04:23:41;220.20;;;7.82;;
55114;SDS011;41010;53.252;5.786;2023-03-01T04:26:08;193.88;;;6.80;;
55114;SDS011;41010;53.252;5.786;2023-03-01T04:28:36;132.20;;;8.38;;
55114;SDS011;41010;53.252;5.786;2023-03-01T04:31:06;115.57;;;7.10;;
55114;SDS011;41010;53.252;5.786;2023-03-01T04:33:39;121.40;;;8.40;;
55114;SDS011;41010;53.252;5.786;2023-03-01T04:36:07;50.58;;;6.53;;
55114;SDS011;41010;53.252;5.786;2023-03-01T04:38:35;57.33;;;5.78;;
55114;SDS011;41010;53.252;5.786;2023-03-01T04:41:05;19.90;;;6.15;;
55114;SDS011;41010;53.252;5.786;2023-03-01T04:43:32;8.18;;;5.53;;
55114;SDS011;41010;53.252;5.786;2023-03-01T04:46:00;7.63;;;4.90;;
55114;SDS011;41010;53.252;5.786;2023-03-01T04:48:29;7.45;;;4.80;;
55114;SDS011;41010;53.252;5.786;2023-03-01T04:50:56;9.30;;;5.68;;
55114;SDS011;41010;53.252;5.786;2023-03-01T04:53:23;36.75;;;6.72;;
55114;SDS011;41010;53.252;5.786;2023-03-01T04:55:51;10.55;;;6.47;;
55114;SDS011;41010;53.252;5.786;2023-03-01T04:58:19;18.35;;;6.55;;
55114;SDS011;41010;53.252;5.786;2023-03-01T05:00:46;11.43;;;6.30;;
55114;SDS011;41010;53.252;5.786;2023-03-01T05:03:14;13.18;;;6.88;;
55114;SDS011;41010;53.252;5.786;2023-03-01T05:05:43;12.63;;;6.85;;
55114;SDS011;41010;53.252;5.786;2023-03-01T05:08:11;10.70;;;6.95;;
55114;SDS011;41010;53.252;5.786;2023-03-01T05:10:43;13.18;;;7.35;;
55114;SDS011;41010;53.252;5.786;2023-03-01T05:13:11;15.07;;;6.72;;
55114;SDS011;41010;53.252;5.786;2023-03-01T05:15:41;11.38;;;6.90;;
55114;SDS011;41010;53.252;5.786;2023-03-01T05:18:08;11.38;;;6.65;;
55114;SDS011;41010;53.252;5.786;2023-03-01T05:20:36;11.02;;;6.60;;
55114;SDS011;41010;53.252;5.786;2023-03-01T05:23:04;11.48;;;6.40;;
55114;SDS011;41010;53.252;5.786;2023-03-01T05:25:31;11.93;;;6.60;;
55114;SDS011;41010;53.252;5.786;2023-03-01T05:27:59;12.50;;;7.53;;
55114;SDS011;41010;53.252;5.786;2023-03-01T05:30:29;16.13;;;8.73;;
55114;SDS011;41010;53.252;5.786;2023-03-01T05:32:58;14.57;;;8.10;;
55114;SDS011;41010;53.252;5.786;2023-03-01T05:35:25;20.10;;;10.38;;
55114;SDS011;41010;53.252;5.786;2023-03-01T05:37:52;14.50;;;8.35;;
55114;SDS011;41010;53.252;5.786;2023-03-01T05:40:20;12.70;;;7.40;;
55114;SDS011;41010;53.252;5.786;2023-03-01T05:42:49;10.77;;;7.13;;
55114;SDS011;41010;53.252;5.786;2023-03-01T05:45:17;13.68;;;8.05;;
55114;SDS011;41010;53.252;5.786;2023-03-01T05:47:45;10.60;;;6.88;;
55114;SDS011;41010;53.252;5.786;2023-03-01T05:50:15;10.50;;;6.45;;
55114;SDS011;41010;53.252;5.786;2023-03-01T05:52:44;10.27;;;6.47;;
55114;SDS011;41010;53.252;5.786;2023-03-01T05:55:11;11.35;;;6.88;;
55114;SDS011;41010;53.252;5.786;2023-03-01T05:57:39;14.38;;;8.07;;
55114;SDS011;41010;53.252;5.786;2023-03-01T06:00:06;13.18;;;7.70;;
55114;SDS011;41010;53.252;5.786;2023-03-01T06:02:34;15.48;;;8.15;;
55114;SDS011;41010;53.252;5.786;2023-03-01T06:05:01;14.93;;;8.63;;
55114;SDS011;41010;53.252;5.786;2023-03-01T06:07:30;20.42;;;9.77;;
55114;SDS011;41010;53.252;5.786;2023-03-01T06:09:57;29.70;;;11.68;;
55114;SDS011;41010;53.252;5.786;2023-03-01T06:12:24;27.05;;;9.90;;
55114;SDS011;41010;53.252;5.786;2023-03-01T06:14:51;43.42;;;12.88;;
55114;SDS011;41010;53.252;5.786;2023-03-01T06:17:19;38.40;;;12.70;;
55114;SDS011;41010;53.252;5.786;2023-03-01T06:19:46;72.47;;;14.38;;
55114;SDS011;41010;53.252;5.786;2023-03-01T06:22:13;115.72;;;17.80;;
55114;SDS011;41010;53.252;5.786;2023-03-01T06:24:42;125.25;;;13.38;;
55114;SDS011;41010;53.252;5.786;2023-03-01T06:27:09;222.68;;;31.27;;
55114;SDS011;41010;53.252;5.786;2023-03-01T06:29:36;101.97;;;22.45;;
55114;SDS011;41010;53.252;5.786;2023-03-01T06:32:04;104.43;;;16.42;;
55114;SDS011;41010;53.252;5.786;2023-03-01T06:34:31;134.68;;;17.15;;
55114;SDS011;41010;53.252;5.786;2023-03-01T06:36:58;150.27;;;16.90;;
55114;SDS011;41010;53.252;5.786;2023-03-01T06:39:27;174.18;;;15.70;;
55114;SDS011;41010;53.252;5.786;2023-03-01T06:41:56;127.82;;;14.45;;
55114;SDS011;41010;53.252;5.786;2023-03-01T06:44:24;125.10;;;15.38;;
55114;SDS011;41010;53.252;5.786;2023-03-01T06:46:51;78.95;;;14.85;;
55114;SDS011;41010;53.252;5.786;2023-03-01T06:49:18;60.15;;;13.30;;
55114;SDS011;41010;53.252;5.786;2023-03-01T06:51:46;74.45;;;12.63;;
55114;SDS011;41010;53.252;5.786;2023-03-01T06:54:13;127.90;;;12.20;;
55114;SDS011;41010;53.252;5.786;2023-03-01T06:56:40;115.03;;;11.55;;
55114;SDS011;41010;53.252;5.786;2023-03-01T06:59:09;51.38;;;9.10;;
55114;SDS011;41010;53.252;5.786;2023-03-01T07:01:36;19.52;;;8.90;;
55114;SDS011;41010;53.252;5.786;2023-03-01T07:04:04;100.20;;;11.30;;
55114;SDS011;41010;53.252;5.786;2023-03-01T07:06:31;61.33;;;10.90;;
55114;SDS011;41010;53.252;5.786;2023-03-01T07:08:58;119.00;;;13.77;;
55114;SDS011;41010;53.252;5.786;2023-03-01T07:11:25;58.33;;;12.02;;
55114;SDS011;41010;53.252;5.786;2023-03-01T07:13:53;73.97;;;12.90;;
55114;SDS011;41010;53.252;5.786;2023-03-01T07:16:22;148.55;;;13.80;;
55114;SDS011;41010;53.252;5.786;2023-03-01T07:18:49;110.32;;;11.48;;
55114;SDS011;41010;53.252;5.786;2023-03-01T07:21:16;72.45;;;11.52;;
55114;SDS011;41010;53.252;5.786;2023-03-01T07:23:46;90.50;;;11.38;;
55114;SDS011;41010;53.252;5.786;2023-03-01T07:26:14;54.97;;;9.45;;
55114;SDS011;41010;53.252;5.786;2023-03-01T07:28:41;59.83;;;9.43;;
55114;SDS011;41010;53.252;5.786;2023-03-01T07:31:08;68.18;;;9.60;;
55114;SDS011;41010;53.252;5.786;2023-03-01T07:33:37;67.28;;;9.60;;
55114;SDS011;41010;53.252;5.786;2023-03-01T07:36:05;96.25;;;11.60;;
55114;SDS011;41010;53.252;5.786;2023-03-01T07:38:32;46.45;;;9.63;;
55114;SDS011;41010;53.252;5.786;2023-03-01T07:41:00;12.68;;;8.35;;
55114;SDS011;41010;53.252;5.786;2023-03-01T07:43:27;14.98;;;9.00;;
55114;SDS011;41010;53.252;5.786;2023-03-01T07:45:57;12.32;;;7.90;;
55114;SDS011;41010;53.252;5.786;2023-03-01T07:48:24;11.57;;;7.35;;
55114;SDS011;41010;53.252;5.786;2023-03-01T07:50:53;13.05;;;8.02;;
55114;SDS011;41010;53.252;5.786;2023-03-01T07:53:20;13.45;;;7.63;;
55114;SDS011;41010;53.252;5.786;2023-03-01T07:55:48;11.73;;;7.70;;
55114;SDS011;41010;53.252;5.786;2023-03-01T07:58:15;14.63;;;8.38;;
55114;SDS011;41010;53.252;5.786;2023-03-01T08:00:42;14.80;;;8.13;;
55114;SDS011;41010;53.252;5.786;2023-03-01T08:03:09;13.60;;;7.00;;
55114;SDS011;41010;53.252;5.786;2023-03-01T08:05:37;9.52;;;6.72;;
55114;SDS011;41010;53.252;5.786;2023-03-01T08:08:05;9.50;;;6.85;;
55114;SDS011;41010;53.252;5.786;2023-03-01T08:10:32;9.27;;;6.55;;
55114;SDS011;41010;53.252;5.786;2023-03-01T08:13:00;9.15;;;6.47;;
55114;SDS011;41010;53.252;5.786;2023-03-01T08:15:27;12.20;;;7.78;;
55114;SDS011;41010;53.252;5.786;2023-03-01T08:17:54;8.65;;;6.03;;
55114;SDS011;41010;53.252;5.786;2023-03-01T08:20:22;9.10;;;6.75;;
55114;SDS011;41010;53.252;5.786;2023-03-01T08:22:49;11.55;;;7.65;;
55114;SDS011;41010;53.252;5.786;2023-03-01T08:25:18;8.35;;;6.53;;
55114;SDS011;41010;53.252;5.786;2023-03-01T08:27:45;8.98;;;6.40;;
55114;SDS011;41010;53.252;5.786;2023-03-01T08:30:12;9.93;;;6.28;;
55114;SDS011;41010;53.252;5.786;2023-03-01T08:32:40;9.65;;;6.65;;
55114;SDS011;41010;53.252;5.786;2023-03-01T08:35:07;6.65;;;5.30;;
55114;SDS011;41010;53.252;5.786;2023-03-01T08:37:35;9.65;;;6.55;;
55114;SDS011;41010;53.252;5.786;2023-03-01T08:40:02;6.32;;;5.10;;
55114;SDS011;41010;53.252;5.786;2023-03-01T08:42:33;6.90;;;5.18;;
55114;SDS011;41010;53.252;5.786;2023-03-01T08:45:01;6.90;;;4.95;;
55114;SDS011;41010;53.252;5.786;2023-03-01T08:47:28;9.50;;;6.40;;
55114;SDS011;41010;53.252;5.786;2023-03-01T08:49:55;9.80;;;7.55;;
55114;SDS011;41010;53.252;5.786;2023-03-01T08:52:22;14.80;;;8.20;;
55114;SDS011;41010;53.252;5.786;2023-03-01T08:54:51;18.17;;;11.18;;
55114;SDS011;41010;53.252;5.786;2023-03-01T08:57:18;16.25;;;10.73;;
55114;SDS011;41010;53.252;5.786;2023-03-01T08:59:47;16.13;;;10.55;;
55114;SDS011;41010;53.252;5.786;2023-03-01T09:02:14;18.17;;;11.75;;
55114;SDS011;41010;53.252;5.786;2023-03-01T09:04:42;21.38;;;12.10;;
55114;SDS011;41010;53.252;5.786;2023-03-01T09:07:09;23.17;;;15.05;;
55114;SDS011;41010;53.252;5.786;2023-03-01T09:09:37;28.02;;;16.58;;
55114;SDS011;41010;53.252;5.786;2023-03-01T09:12:04;28.48;;;17.30;;
55114;SDS011;41010;53.252;5.786;2023-03-01T09:14:33;23.67;;;14.32;;
55114;SDS011;41010;53.252;5.786;2023-03-01T09:17:03;23.42;;;15.18;;
55114;SDS011;41010;53.252;5.786;2023-03-01T09:19:31;27.42;;;15.98;;
55114;SDS011;41010;53.252;5.786;2023-03-01T09:21:58;24.65;;;15.40;;
55114;SDS011;41010;53.252;5.786;2023-03-01T09:24:25;28.40;;;17.45;;
55114;SDS011;41010;53.252;5.786;2023-03-01T09:26:53;22.27;;;14.80;;
55114;SDS011;41010;53.252;5.786;2023-03-01T09:29:21;22.42;;;14.23;;
55114;SDS011;41010;53.252;5.786;2023-03-01T09:31:49;23.13;;;14.73;;
55114;SDS011;41010;53.252;5.786;2023-03-01T09:34:21;23.75;;;13.82;;
55114;SDS011;41010;53.252;5.786;2023-03-01T09:36:49;22.33;;;13.90;;
55114;SDS011;41010;53.252;5.786;2023-03-01T09:39:16;21.35;;;13.48;;
55114;SDS011;41010;53.252;5.786;2023-03-01T09:41:46;24.60;;;12.75;;
55114;SDS011;41010;53.252;5.786;2023-03-01T09:44:25;25.17;;;13.35;;
55114;SDS011;41010;53.252;5.786;2023-03-01T09:46:55;21.45;;;13.63;;
55114;SDS011;41010;53.252;5.786;2023-03-01T09:49:25;22.08;;;13.45;;
55114;SDS011;41010;53.252;5.786;2023-03-01T09:51:54;22.33;;;13.48;;
55114;SDS011;41010;53.252;5.786;2023-03-01T09:54:22;19.02;;;12.80;;
55114;SDS011;41010;53.252;5.786;2023-03-01T09:56:53;20.95;;;12.57;;
55114;SDS011;41010;53.252;5.786;2023-03-01T10:01:52;22.42;;;13.02;;
55114;SDS011;41010;53.252;5.786;2023-03-01T10:04:32;20.63;;;12.45;;
55114;SDS011;41010;53.252;5.786;2023-03-01T10:07:10;20.85;;;12.25;;
55114;SDS011;41010;53.252;5.786;2023-03-01T10:09:40;20.75;;;12.95;;
55114;SDS011;41010;53.252;5.786;2023-03-01T10:12:08;20.42;;;13.30;;
55114;SDS011;41010;53.252;5.786;2023-03-01T10:14:38;19.88;;;12.52;;
55114;SDS011;41010;53.252;5.786;2023-03-01T10:17:08;20.55;;;12.80;;
55114;SDS011;41010;53.252;5.786;2023-03-01T10:19:39;17.40;;;12.10;;
55114;SDS011;41010;53.252;5.786;2023-03-01T10:22:10;19.80;;;13.70;;
55114;SDS011;41010;53.252;5.786;2023-03-01T10:24:40;19.00;;;11.95;;
55114;SDS011;41010;53.252;5.786;2023-03-01T10:27:08;21.15;;;12.95;;
55114;SDS011;41010;53.252;5.786;2023-03-01T10:29:37;18.73;;;12.45;;
55114;SDS011;41010;53.252;5.786;2023-03-01T10:32:06;18.48;;;11.95;;
55114;SDS011;41010;53.252;5.786;2023-03-01T10:34:34;17.52;;;11.15;;
55114;SDS011;41010;53.252;5.786;2023-03-01T10:37:09;15.50;;;10.82;;
55114;SDS011;41010;53.252;5.786;2023-03-01T10:39:37;15.68;;;10.43;;
55114;SDS011;41010;53.252;5.786;2023-03-01T10:42:22;16.45;;;10.57;;
55114;SDS011;41010;53.252;5.786;2023-03-01T10:44:52;14.18;;;9.82;;
55114;SDS011;41010;53.252;5.786;2023-03-01T10:47:20;16.42;;;10.20;;
55114;SDS011;41010;53.252;5.786;2023-03-01T10:52:36;14.15;;;8.57;;
55114;SDS011;41010;53.252;5.786;2023-03-01T10:55:04;14.65;;;9.35;;
55114;SDS011;41010;53.252;5.786;2023-03-01T10:57:46;14.32;;;8.43;;
55114;SDS011;41010;53.252;5.786;2023-03-01T11:00:18;12.25;;;8.15;;
55114;SDS011;41010;53.252;5.786;2023-03-01T11:02:47;10.77;;;8.07;;
55114;SDS011;41010;53.252;5.786;2023-03-01T11:05:19;9.55;;;7.82;;
55114;SDS011;41010;53.252;5.786;2023-03-01T11:07:51;14.20;;;7.85;;
55114;SDS011;41010;53.252;5.786;2023-03-01T11:10:22;11.05;;;7.32;;
55114;SDS011;41010;53.252;5.786;2023-03-01T11:12:51;11.52;;;8.02;;
55114;SDS011;41010;53.252;5.786;2023-03-01T11:15:23;12.57;;;6.47;;
55114;SDS011;41010;53.252;5.786;2023-03-01T11:17:50;11.65;;;6.68;;
55114;SDS011;41010;53.252;5.786;2023-03-01T11:20:21;8.98;;;6.70;;
55114;SDS011;41010;53.252;5.786;2023-03-01T11:22:53;9.70;;;5.82;;
55114;SDS011;41010;53.252;5.786;2023-03-01T11:25:23;9.38;;;5.97;;
55114;SDS011;41010;53.252;5.786;2023-03-01T11:27:51;9.57;;;6.15;;
55114;SDS011;41010;53.252;5.786;2023-03-01T11:30:20;9.15;;;6.20;;
55114;SDS011;41010;53.252;5.786;2023-03-01T11:32:50;8.38;;;6.50;;
55114;SDS011;41010;53.252;5.786;2023-03-01T11:35:20;8.65;;;6.45;;
55114;SDS011;41010;53.252;5.786;2023-03-01T11:37:52;9.43;;;6.13;;
55114;SDS011;41010;53.252;5.786;2023-03-01T11:40:25;10.68;;;6.80;;
55114;SDS011;41010;53.252;5.786;2023-03-01T11:42:59;14.10;;;7.43;;
55114;SDS011;41010;53.252;5.786;2023-03-01T11:45:30;13.07;;;7.95;;
55114;SDS011;41010;53.252;5.786;2023-03-01T11:48:02;10.93;;;8.13;;
55114;SDS011;41010;53.252;5.786;2023-03-01T11:50:34;9.55;;;6.75;;
55114;SDS011;41010;53.252;5.786;2023-03-01T11:53:11;15.07;;;7.13;;
55114;SDS011;41010;53.252;5.786;2023-03-01T11:55:50;9.75;;;7.50;;
55114;SDS011;41010;53.252;5.786;2023-03-01T11:58:34;9.70;;;6.60;;
55114;SDS011;41010;53.252;5.786;2023-03-01T12:01:07;10.57;;;7.53;;
55114;SDS011;41010;53.252;5.786;2023-03-01T12:03:44;11.98;;;8.15;;
55114;SDS011;41010;53.252;5.786;2023-03-01T12:06:25;12.10;;;7.47;;
55114;SDS011;41010;53.252;5.786;2023-03-01T12:09:03;12.93;;;7.75;;
55114;SDS011;41010;53.252;5.786;2023-03-01T12:11:36;12.52;;;7.95;;
55114;SDS011;41010;53.252;5.786;2023-03-01T12:14:23;9.82;;;7.68;;
55114;SDS011;41010;53.252;5.786;2023-03-01T12:17:06;13.15;;;8.80;;
55114;SDS011;41010;53.252;5.786;2023-03-01T12:19:39;11.98;;;8.50;;
55114;SDS011;41010;53.252;5.786;2023-03-01T12:22:11;12.13;;;8.57;;
55114;SDS011;41010;53.252;5.786;2023-03-01T12:24:47;13.88;;;8.45;;
55114;SDS011;41010;53.252;5.786;2023-03-01T12:27:29;12.50;;;8.60;;
55114;SDS011;41010;53.252;5.786;2023-03-01T12:30:03;13.55;;;9.48;;
55114;SDS011;41010;53.252;5.786;2023-03-01T12:32:36;12.02;;;8.88;;
55114;SDS011;41010;53.252;5.786;2023-03-01T12:37:39;12.60;;;8.30;;
55114;SDS011;41010;53.252;5.786;2023-03-01T12:40:19;11.32;;;8.20;;
55114;SDS011;41010;53.252;5.786;2023-03-01T12:42:57;13.38;;;9.02;;
55114;SDS011;41010;53.252;5.786;2023-03-01T12:45:42;10.13;;;7.90;;
55114;SDS011;41010;53.252;5.786;2023-03-01T12:48:17;11.40;;;8.27;;
55114;SDS011;41010;53.252;5.786;2023-03-01T12:50:47;11.15;;;8.32;;
55114;SDS011;41010;53.252;5.786;2023-03-01T12:53:20;10.82;;;8.40;;
55114;SDS011;41010;53.252;5.786;2023-03-01T12:58:25;10.50;;;8.25;;
55114;SDS011;41010;53.252;5.786;2023-03-01T13:01:00;10.90;;;8.05;;
55114;SDS011;41010;53.252;5.786;2023-03-01T13:03:30;11.20;;;8.43;;
55114;SDS011;41010;53.252;5.786;2023-03-01T13:06:03;11.43;;;8.88;;
55114;SDS011;41010;53.252;5.786;2023-03-01T13:08:33;10.45;;;8.38;;
55114;SDS011;41010;53.252;5.786;2023-03-01T13:11:02;11.93;;;8.40;;
55114;SDS011;41010;53.252;5.786;2023-03-01T13:13:32;12.65;;;8.50;;
55114;SDS011;41010;53.252;5.786;2023-03-01T13:16:20;11.75;;;8.77;;
55114;SDS011;41010;53.252;5.786;2023-03-01T13:18:48;13.77;;;9.10;;
55114;SDS011;41010;53.252;5.786;2023-03-01T13:21:27;16.63;;;9.25;;
55114;SDS011;41010;53.252;5.786;2023-03-01T13:23:55;13.38;;;7.93;;
55114;SDS011;41010;53.252;5.786;2023-03-01T13:26:23;10.38;;;8.68;;
55114;SDS011;41010;53.252;5.786;2023-03-01T13:28:53;11.88;;;9.10;;
55114;SDS011;41010;53.252;5.786;2023-03-01T13:34:06;12.27;;;8.60;;
55114;SDS011;41010;53.252;5.786;2023-03-01T13:36:54;13.30;;;8.82;;
55114;SDS011;41010;53.252;5.786;2023-03-01T13:39:38;12.88;;;8.70;;
55114;SDS011;41010;53.252;5.786;2023-03-01T13:44:49;13.10;;;8.82;;
55114;SDS011;41010;53.252;5.786;2023-03-01T13:47:17;12.63;;;8.38;;
55114;SDS011;41010;53.252;5.786;2023-03-01T13:49:46;13.43;;;8.98;;
55114;SDS011;41010;53.252;5.786;2023-03-01T13:52:27;12.68;;;8.57;;
55114;SDS011;41010;53.252;5.786;2023-03-01T13:54:57;12.27;;;8.75;;
55114;SDS011;41010;53.252;5.786;2023-03-01T13:57:29;10.07;;;8.52;;
55114;SDS011;41010;53.252;5.786;2023-03-01T14:00:00;11.90;;;8.45;;
55114;SDS011;41010;53.252;5.786;2023-03-01T14:02:28;10.73;;;8.07;;
55114;SDS011;41010;53.252;5.786;2023-03-01T14:04:56;9.73;;;7.80;;
55114;SDS011;41010;53.252;5.786;2023-03-01T14:07:24;10.50;;;7.88;;
55114;SDS011;41010;53.252;5.786;2023-03-01T14:09:54;11.48;;;8.20;;
55114;SDS011;41010;53.252;5.786;2023-03-01T14:12:36;10.77;;;8.60;;
55114;SDS011;41010;53.252;5.786;2023-03-01T14:15:08;10.70;;;8.60;;
55114;SDS011;41010;53.252;5.786;2023-03-01T14:17:44;10.45;;;8.20;;
55114;SDS011;41010;53.252;5.786;2023-03-01T14:20:16;12.07;;;8.80;;
55114;SDS011;41010;53.252;5.786;2023-03-01T14:22:45;9.85;;;8.13;;
55114;SDS011;41010;53.252;5.786;2023-03-01T14:27:57;12.43;;;7.63;;
55114;SDS011;41010;53.252;5.786;2023-03-01T14:30:27;10.98;;;7.75;;
55114;SDS011;41010;53.252;5.786;2023-03-01T14:32:58;8.15;;;7.10;;
55114;SDS011;41010;53.252;5.786;2023-03-01T14:35:26;9.98;;;7.82;;
55114;SDS011;41010;53.252;5.786;2023-03-01T14:37:53;12.43;;;8.27;;
55114;SDS011;41010;53.252;5.786;2023-03-01T14:40:22;10.52;;;8.32;;
55114;SDS011;41010;53.252;5.786;2023-03-01T14:42:50;12.27;;;8.32;;
55114;SDS011;41010;53.252;5.786;2023-03-01T14:45:18;8.73;;;7.82;;
55114;SDS011;41010;53.252;5.786;2023-03-01T14:47:47;11.65;;;8.38;;
55114;SDS011;41010;53.252;5.786;2023-03-01T14:50:17;11.65;;;8.07;;
55114;SDS011;41010;53.252;5.786;2023-03-01T14:52:47;10.88;;;8.05;;
55114;SDS011;41010;53.252;5.786;2023-03-01T14:55:16;9.30;;;7.50;;
55114;SDS011;41010;53.252;5.786;2023-03-01T14:57:44;10.00;;;7.63;;
55114;SDS011;41010;53.252;5.786;2023-03-01T15:00:15;9.23;;;7.30;;
55114;SDS011;41010;53.252;5.786;2023-03-01T15:02:43;8.57;;;7.22;;